createdAt,value
2023-01-17T00:01:34.806Z,3.60
2023-01-17T00:04:24.565Z,3.60
2023-01-17T00:07:10.276Z,3.60
2023-01-17T00:09:57.229Z,3.60
2023-01-17T00:12:26.509Z,3.60
2023-01-17T00:14:55.881Z,3.60
2023-01-17T00:17:24.259Z,3.60
2023-01-17T00:20:11.388Z,3.60
2023-01-17T00:22:57.696Z,3.60
2023-01-17T00:25:45.418Z,3.60
2023-01-17T00:28:12.572Z,3.60
2023-01-17T00:30:40.173Z,3.50
2023-01-17T00:33:07.378Z,3.50
2023-01-17T00:35:35.750Z,3.50
2023-01-17T00:38:04.852Z,3.50
2023-01-17T00:40:34.085Z,3.50
2023-01-17T00:43:19.649Z,3.50
2023-01-17T00:46:05.941Z,3.50
2023-01-17T00:48:52.147Z,3.50
2023-01-17T00:51:39.949Z,3.50
2023-01-17T00:54:25.677Z,3.50
2023-01-17T00:57:12.107Z,3.50
2023-01-17T00:59:57.681Z,3.50
2023-01-17T01:02:44.524Z,3.50
2023-01-17T01:05:32.576Z,3.50
2023-01-17T01:08:20.461Z,3.50
2023-01-17T01:11:09.968Z,3.50
2023-01-17T01:13:55.584Z,3.50
2023-01-17T01:16:41.255Z,3.50
2023-01-17T01:19:26.964Z,3.50
2023-01-17T01:22:12.448Z,3.50
2023-01-17T01:24:59.495Z,3.50
2023-01-17T01:27:45.348Z,3.40
2023-01-17T01:30:30.744Z,3.40
2023-01-17T01:33:16.310Z,3.40
2023-01-17T01:35:44.382Z,3.40
2023-01-17T01:38:12.580Z,3.40
2023-01-17T01:40:47.174Z,3.40
2023-01-17T01:43:17.001Z,3.40
2023-01-17T01:45:49.583Z,3.40
2023-01-17T01:48:34.973Z,3.30
2023-01-17T01:51:05.215Z,3.30
2023-01-17T01:53:36.532Z,3.30
2023-01-17T01:56:09.530Z,3.30
2023-01-17T01:58:38.819Z,3.20
2023-01-17T02:01:09.386Z,3.20
2023-01-17T02:03:39.373Z,3.20
2023-01-17T02:06:26.192Z,3.20
2023-01-17T02:08:54.861Z,3.20
2023-01-17T02:11:24.698Z,3.20
2023-01-17T02:13:52.681Z,3.20
2023-01-17T02:16:38.202Z,3.20
2023-01-17T02:19:50.528Z,3.10
2023-01-17T02:22:40.827Z,3.10
2023-01-17T02:25:32.347Z,3.10
2023-01-17T02:28:16.808Z,3.00
2023-01-17T02:30:49.284Z,2.90
2023-01-17T02:33:25.027Z,2.90
2023-01-17T02:36:07.104Z,3.00
2023-01-17T02:38:44.201Z,3.00
2023-01-17T02:41:18.129Z,2.90
2023-01-17T02:43:46.273Z,2.90
2023-01-17T02:46:16.629Z,2.90
2023-01-17T02:48:45.626Z,2.90
2023-01-17T02:51:27.104Z,2.80
2023-01-17T02:54:09.724Z,2.80
2023-01-17T02:56:50.496Z,2.80
2023-01-17T02:59:38.032Z,2.80
2023-01-17T03:02:20.107Z,2.70
2023-01-17T03:04:52.698Z,2.70
2023-01-17T03:07:25.962Z,2.60
2023-01-17T03:10:00.575Z,2.60
2023-01-17T03:12:29.779Z,2.60
2023-01-17T03:14:58.704Z,2.60
2023-01-17T03:17:32.510Z,2.60
2023-01-17T03:20:01.340Z,2.50
2023-01-17T03:22:30.921Z,2.60
2023-01-17T03:25:00.831Z,2.50
2023-01-17T03:27:29.009Z,2.60
2023-01-17T03:29:59.349Z,2.60
2023-01-17T03:32:29.076Z,2.60
2023-01-17T03:34:57.238Z,2.60
2023-01-17T03:37:25.841Z,2.60
2023-01-17T03:39:54.104Z,2.50
2023-01-17T03:42:24.228Z,2.50
2023-01-17T03:44:52.281Z,2.50
2023-01-17T03:47:20.439Z,2.50
2023-01-17T03:49:50.381Z,2.50
2023-01-17T03:52:18.513Z,2.40
2023-01-17T03:54:46.606Z,2.50
2023-01-17T03:57:14.571Z,2.40
2023-01-17T03:59:44.188Z,2.50
2023-01-17T04:02:12.364Z,2.50
2023-01-17T04:04:40.661Z,2.50
2023-01-17T04:07:10.157Z,2.50
2023-01-17T04:09:38.528Z,2.40
2023-01-17T04:12:06.902Z,2.50
2023-01-17T04:14:36.708Z,2.40
2023-01-17T04:17:07.664Z,2.40
2023-01-17T04:19:38.455Z,2.40
2023-01-17T04:22:06.797Z,2.40
2023-01-17T04:24:36.684Z,2.40
2023-01-17T04:27:05.760Z,2.40
2023-01-17T04:29:35.724Z,2.40
2023-01-17T04:32:03.770Z,2.40
2023-01-17T04:34:31.835Z,2.30
2023-01-17T04:36:59.915Z,2.40
2023-01-17T04:39:28.091Z,2.40
2023-01-17T04:41:57.809Z,2.40
2023-01-17T04:44:25.979Z,2.30
2023-01-17T04:46:54.140Z,2.40
2023-01-17T04:49:23.741Z,2.40
2023-01-17T04:51:54.829Z,2.30
2023-01-17T04:54:22.979Z,2.40
2023-01-17T04:56:51.093Z,2.40
2023-01-17T04:59:20.521Z,2.40
2023-01-17T05:01:50.168Z,2.40
2023-01-17T05:04:21.311Z,2.30
2023-01-17T05:06:49.353Z,2.30
2023-01-17T05:09:18.047Z,2.20
2023-01-17T05:11:46.065Z,2.20
2023-01-17T05:14:14.293Z,2.20
2023-01-17T05:16:43.728Z,2.20
2023-01-17T05:19:11.859Z,2.20
2023-01-17T05:21:40.047Z,2.10
2023-01-17T05:24:08.841Z,2.10
2023-01-17T05:26:37.029Z,2.10
2023-01-17T05:29:05.400Z,2.10
2023-01-17T05:31:35.543Z,2.00
2023-01-17T05:34:05.541Z,2.00
2023-01-17T05:36:33.698Z,2.00
2023-01-17T05:39:02.000Z,1.90
2023-01-17T05:41:29.967Z,1.80
2023-01-17T05:44:01.035Z,1.80
2023-01-17T05:46:29.300Z,1.70
2023-01-17T05:48:57.460Z,1.70
2023-01-17T05:51:27.037Z,1.60
2023-01-17T05:53:55.125Z,1.60
2023-01-17T05:56:23.396Z,1.60
2023-01-17T05:58:51.674Z,1.50
2023-01-17T06:01:19.876Z,1.60
2023-01-17T06:03:51.224Z,1.50
2023-01-17T06:06:22.966Z,1.50
2023-01-17T06:08:54.450Z,1.50
2023-01-17T06:11:24.924Z,1.50
2023-01-17T06:13:58.810Z,1.50
2023-01-17T06:16:26.672Z,1.40
2023-01-17T06:18:54.577Z,1.40
2023-01-17T06:21:22.586Z,1.40
2023-01-17T06:23:55.788Z,1.30
2023-01-17T06:26:23.741Z,1.20
2023-01-17T06:28:51.979Z,1.10
2023-01-17T06:31:23.058Z,1.10
2023-01-17T06:33:51.119Z,1.00
2023-01-17T06:36:21.852Z,1.00
2023-01-17T06:38:52.787Z,0.90
2023-01-17T06:41:25.913Z,0.90
2023-01-17T06:43:54.451Z,0.90
2023-01-17T06:46:26.249Z,0.90
2023-01-17T06:48:55.092Z,0.80
2023-01-17T06:51:23.137Z,0.70
2023-01-17T06:53:52.689Z,0.70
2023-01-17T06:56:23.851Z,0.60
2023-01-17T06:58:52.764Z,0.50
2023-01-17T07:01:20.964Z,0.60
2023-01-17T07:03:53.008Z,0.60
2023-01-17T07:06:21.153Z,0.60
2023-01-17T07:08:49.057Z,0.60
2023-01-17T07:11:23.434Z,0.50
2023-01-17T07:13:51.505Z,0.50
2023-01-17T07:16:19.623Z,0.40
2023-01-17T07:18:47.977Z,0.50
2023-01-17T07:21:17.293Z,0.50
2023-01-17T07:23:45.527Z,0.50
2023-01-17T07:26:13.799Z,0.50
2023-01-17T07:28:43.283Z,0.60
2023-01-17T07:31:11.339Z,0.60
2023-01-17T07:33:39.555Z,0.60
2023-01-17T07:36:09.439Z,0.50
2023-01-17T07:38:37.891Z,0.50
2023-01-17T07:41:07.880Z,0.50
2023-01-17T07:43:38.600Z,0.50
2023-01-17T07:46:09.542Z,0.50
2023-01-17T07:48:37.815Z,0.40
2023-01-17T07:51:06.331Z,0.30
2023-01-17T07:53:34.370Z,0.30
2023-01-17T07:56:04.411Z,0.30
2023-01-17T07:58:32.887Z,0.30
2023-01-17T08:01:05.124Z,0.20
2023-01-17T08:03:39.755Z,0.20
2023-01-17T08:06:14.698Z,0.10
2023-01-17T08:08:42.811Z,0.00
2023-01-17T08:11:10.740Z,-0.10
2023-01-17T08:13:38.904Z,-0.10
2023-01-17T08:16:07.930Z,-0.20
2023-01-17T08:18:39.401Z,-0.20
2023-01-17T08:21:14.708Z,-0.10
2023-01-17T08:23:45.775Z,0.00
2023-01-17T08:26:21.561Z,0.10
2023-01-17T08:28:50.755Z,0.20
2023-01-17T08:31:21.521Z,0.30
2023-01-17T08:33:51.175Z,0.60
2023-01-17T08:36:19.461Z,0.70
2023-01-17T08:38:52.787Z,0.80
2023-01-17T08:41:23.588Z,0.80
2023-01-17T08:43:52.643Z,1.00
2023-01-17T08:46:23.304Z,1.10
2023-01-17T08:48:58.768Z,1.30
2023-01-17T08:51:28.158Z,1.50
2023-01-17T08:53:58.536Z,1.60
2023-01-17T08:56:27.347Z,1.70
2023-01-17T08:58:55.314Z,1.80
2023-01-17T09:01:23.590Z,2.00
2023-01-17T09:03:52.526Z,2.10
2023-01-17T09:06:22.725Z,2.20
2023-01-17T09:08:54.993Z,2.20
2023-01-17T09:11:24.984Z,2.30
2023-01-17T09:13:55.842Z,2.40
2023-01-17T09:16:24.306Z,2.40
2023-01-17T09:18:55.548Z,2.50
2023-01-17T09:21:25.918Z,2.70
2023-01-17T09:23:54.435Z,2.90
2023-01-17T09:26:24.718Z,3.00
2023-01-17T09:28:56.990Z,3.00
2023-01-17T09:31:27.327Z,3.00
2023-01-17T09:33:57.048Z,3.30
2023-01-17T09:36:29.277Z,3.40
2023-01-17T09:38:58.993Z,3.50
2023-01-17T09:41:31.186Z,3.70
2023-01-17T09:44:09.280Z,3.50
2023-01-17T09:46:42.285Z,3.50
2023-01-17T09:49:17.923Z,3.70
2023-01-17T09:51:47.450Z,3.70
2023-01-17T09:54:23.003Z,3.70
2023-01-17T09:57:03.503Z,3.80
2023-01-17T09:59:45.644Z,3.90
2023-01-17T10:02:52.565Z,4.10
2023-01-17T10:05:36.812Z,4.20
2023-01-17T10:08:25.097Z,4.30
2023-01-17T10:11:14.885Z,4.40
2023-01-17T10:13:52.896Z,4.40
2023-01-17T10:16:31.068Z,4.60
2023-01-17T10:19:12.648Z,4.90
2023-01-17T10:22:02.261Z,5.00
2023-01-17T10:24:57.377Z,5.00
2023-01-17T10:27:29.309Z,5.10
2023-01-17T10:29:57.726Z,5.10
2023-01-17T10:32:30.016Z,4.90
2023-01-17T10:35:02.859Z,4.80
2023-01-17T10:37:41.490Z,4.80
2023-01-17T10:40:21.117Z,5.00
2023-01-17T10:43:01.385Z,4.90
2023-01-17T10:45:41.213Z,4.90
2023-01-17T10:48:16.730Z,4.90
2023-01-17T10:50:55.598Z,4.90
2023-01-17T10:53:38.672Z,4.90
2023-01-17T10:56:09.917Z,5.20
2023-01-17T10:58:38.353Z,5.40
2023-01-17T11:01:16.778Z,5.10
2023-01-17T11:03:50.051Z,5.00
2023-01-17T11:06:23.885Z,5.00
2023-01-17T11:08:58.875Z,5.10
2023-01-17T11:11:32.149Z,5.40
2023-01-17T11:14:07.238Z,5.40
2023-01-17T11:16:37.290Z,5.60
2023-01-17T11:19:14.943Z,5.80
2023-01-17T11:21:51.950Z,5.40
2023-01-17T11:24:25.821Z,5.00
2023-01-17T11:27:04.258Z,5.10
2023-01-17T11:29:37.099Z,5.30
2023-01-17T11:32:31.950Z,5.40
2023-01-17T11:35:21.315Z,5.50
2023-01-17T11:37:51.339Z,5.50
2023-01-17T11:40:25.533Z,5.50
2023-01-17T11:43:04.994Z,5.40
2023-01-17T11:45:36.734Z,5.30
2023-01-17T11:48:18.809Z,5.10
2023-01-17T11:50:55.380Z,5.10
2023-01-17T11:53:31.022Z,5.10
2023-01-17T11:56:07.212Z,5.10
2023-01-17T11:58:41.111Z,5.10
2023-01-17T12:01:31.263Z,5.20
2023-01-17T12:04:21.106Z,5.50
2023-01-17T12:06:59.249Z,5.60
2023-01-17T12:09:34.966Z,5.70
2023-01-17T12:12:28.339Z,5.80
2023-01-17T12:15:12.959Z,5.80
2023-01-17T12:18:02.875Z,6.00
2023-01-17T12:20:42.418Z,5.90
2023-01-17T12:23:37.308Z,5.80
2023-01-17T12:26:23.933Z,5.80
2023-01-17T12:29:24.259Z,5.80
2023-01-17T12:32:08.764Z,5.90
2023-01-17T12:34:44.646Z,5.80
2023-01-17T12:37:21.154Z,5.90
2023-01-17T12:39:55.242Z,5.80
2023-01-17T12:42:28.894Z,5.70
2023-01-17T12:45:04.053Z,5.60
2023-01-17T12:47:36.561Z,5.40
2023-01-17T12:50:15.712Z,5.30
2023-01-17T12:52:53.392Z,5.20
2023-01-17T12:55:35.825Z,5.20
2023-01-17T12:58:13.823Z,5.10
2023-01-17T13:00:51.383Z,5.10
2023-01-17T13:03:28.506Z,5.10
2023-01-17T13:05:57.661Z,4.80
2023-01-17T13:08:40.934Z,4.80
2023-01-17T13:11:17.260Z,4.80
2023-01-17T13:13:45.872Z,4.80
2023-01-17T13:16:17.489Z,4.70
2023-01-17T13:18:51.424Z,4.70
2023-01-17T13:21:31.516Z,4.80
2023-01-17T13:24:22.189Z,4.60
2023-01-17T13:27:16.588Z,4.50
2023-01-17T13:29:58.363Z,4.50
2023-01-17T13:32:54.171Z,4.50
2023-01-17T13:35:33.629Z,4.40
2023-01-17T13:38:37.762Z,4.40
2023-01-17T13:41:13.740Z,4.20
2023-01-17T13:44:05.120Z,4.20
2023-01-17T13:46:52.995Z,4.00
2023-01-17T13:49:34.740Z,4.10
2023-01-17T13:52:09.714Z,4.10
2023-01-17T13:54:45.853Z,4.00
2023-01-17T13:57:42.459Z,3.90
2023-01-17T14:00:56.928Z,3.90
2023-01-17T14:04:01.944Z,3.90
2023-01-17T14:06:35.097Z,4.00
2023-01-17T14:09:12.583Z,4.00
2023-01-17T14:11:54.072Z,3.90
2023-01-17T14:14:48.642Z,3.80
2023-01-17T14:17:59.765Z,3.70
2023-01-17T14:20:49.820Z,3.60
2023-01-17T14:24:04.207Z,3.50
2023-01-17T14:27:02.679Z,3.50
2023-01-17T14:29:54.732Z,3.40
2023-01-17T14:32:25.631Z,3.50
2023-01-17T14:34:54.614Z,3.50
2023-01-17T14:37:31.945Z,3.40
2023-01-17T14:40:01.152Z,3.40
2023-01-17T14:42:32.173Z,3.30
2023-01-17T14:45:06.802Z,3.30
2023-01-17T14:47:39.170Z,3.30
2023-01-17T14:50:20.753Z,3.30
2023-01-17T14:53:15.769Z,3.20
2023-01-17T14:55:51.731Z,3.00
2023-01-17T14:58:23.682Z,2.80
2023-01-17T15:00:54.705Z,2.70
2023-01-17T15:03:25.398Z,2.60
2023-01-17T15:05:56.026Z,2.70
2023-01-17T15:08:35.946Z,2.60
2023-01-17T15:11:11.496Z,2.50
2023-01-17T15:13:45.306Z,2.30
2023-01-17T15:16:21.580Z,2.30
2023-01-17T15:18:50.080Z,2.30
2023-01-17T15:21:23.551Z,2.30
2023-01-17T15:23:58.115Z,2.30
2023-01-17T15:26:28.581Z,2.30
2023-01-17T15:29:07.794Z,2.20
2023-01-17T15:31:45.571Z,1.90
2023-01-17T15:34:26.138Z,1.80
2023-01-17T15:36:57.947Z,1.70
2023-01-17T15:39:30.060Z,1.60
2023-01-17T15:42:00.950Z,1.50
2023-01-17T15:44:47.678Z,1.50
2023-01-17T15:47:33.671Z,1.50
2023-01-17T15:50:03.463Z,1.40
2023-01-17T15:52:31.733Z,1.20
2023-01-17T15:55:00.657Z,1.10
2023-01-17T15:57:30.964Z,1.20
2023-01-17T16:00:05.540Z,1.10
2023-01-17T16:02:43.554Z,1.10
2023-01-17T16:05:38.667Z,1.10
2023-01-17T16:08:29.295Z,1.00
2023-01-17T16:11:02.324Z,0.90
2023-01-17T16:13:32.566Z,0.80
2023-01-17T16:16:22.808Z,0.80
2023-01-17T16:19:01.639Z,0.70
2023-01-17T16:21:33.403Z,0.70
2023-01-17T16:24:02.915Z,0.70
2023-01-17T16:26:33.819Z,0.80
2023-01-17T16:29:02.425Z,0.80
2023-01-17T16:31:33.690Z,0.80
2023-01-17T16:34:01.657Z,0.70
2023-01-17T16:36:29.913Z,0.70
2023-01-17T16:38:57.996Z,0.70
2023-01-17T16:41:26.069Z,0.70
2023-01-17T16:44:01.386Z,0.70
2023-01-17T16:46:31.760Z,0.70
2023-01-17T16:49:06.573Z,0.70
2023-01-17T16:51:34.985Z,0.70
2023-01-17T16:54:04.844Z,0.70
2023-01-17T16:56:33.032Z,0.60
2023-01-17T16:59:09.270Z,0.70
2023-01-17T17:01:41.188Z,0.60
2023-01-17T17:04:13.010Z,0.70
2023-01-17T17:06:46.402Z,0.70
2023-01-17T17:09:18.341Z,0.60
2023-01-17T17:11:46.598Z,0.50
2023-01-17T17:14:14.824Z,0.50
2023-01-17T17:16:44.609Z,0.60
2023-01-17T17:19:12.845Z,0.60
2023-01-17T17:21:42.637Z,0.50
2023-01-17T17:24:17.186Z,0.50
2023-01-17T17:26:46.230Z,0.50
2023-01-17T17:29:16.235Z,0.50
2023-01-17T17:31:46.307Z,0.50
2023-01-17T17:34:15.743Z,0.50
2023-01-17T17:36:44.136Z,0.50
2023-01-17T17:39:14.777Z,0.40
2023-01-17T17:41:46.437Z,0.40
2023-01-17T17:44:16.073Z,0.40
2023-01-17T17:46:49.266Z,0.40
2023-01-17T17:49:18.079Z,0.30
2023-01-17T17:51:46.486Z,0.30
2023-01-17T17:54:17.139Z,0.20
2023-01-17T17:56:47.687Z,0.20
2023-01-17T17:59:18.312Z,0.20
2023-01-17T18:01:48.025Z,0.20
2023-01-17T18:04:18.496Z,0.10
2023-01-17T18:06:47.214Z,0.10
2023-01-17T18:09:15.535Z,0.00
2023-01-17T18:11:44.682Z,0.00
2023-01-17T18:14:21.059Z,-0.10
2023-01-17T18:16:53.829Z,-0.10
2023-01-17T18:19:23.591Z,-0.20
2023-01-17T18:21:51.778Z,-0.20
2023-01-17T18:24:21.772Z,-0.20
2023-01-17T18:26:53.019Z,-0.30
2023-01-17T18:29:25.697Z,-0.30
2023-01-17T18:31:56.959Z,-0.30
2023-01-17T18:34:28.518Z,-0.30
2023-01-17T18:36:56.925Z,-0.30
2023-01-17T18:39:27.145Z,-0.30
2023-01-17T18:41:57.564Z,-0.30
2023-01-17T18:44:26.676Z,-0.30
2023-01-17T18:46:58.629Z,-0.30
2023-01-17T18:49:27.053Z,-0.30
2023-01-17T18:51:58.767Z,-0.30
2023-01-17T18:54:29.956Z,-0.30
2023-01-17T18:56:58.230Z,-0.30
2023-01-17T18:59:26.360Z,-0.30
2023-01-17T19:01:55.946Z,-0.30
2023-01-17T19:04:24.599Z,-0.30
2023-01-17T19:06:55.763Z,-0.40
2023-01-17T19:09:27.153Z,-0.40
2023-01-17T19:11:55.145Z,-0.40
2023-01-17T19:14:23.368Z,-0.40
2023-01-17T19:16:51.446Z,-0.40
2023-01-17T19:19:20.863Z,-0.40
2023-01-17T19:21:54.020Z,-0.30
2023-01-17T19:24:22.239Z,-0.30
2023-01-17T19:26:54.651Z,-0.30
2023-01-17T19:29:23.138Z,-0.20
2023-01-17T19:31:51.341Z,-0.30
2023-01-17T19:34:22.337Z,-0.30
2023-01-17T19:36:54.288Z,-0.30
2023-01-17T19:39:25.318Z,-0.30
2023-01-17T19:41:53.588Z,-0.20
2023-01-17T19:44:21.904Z,-0.20
2023-01-17T19:46:50.216Z,-0.20
2023-01-17T19:49:24.750Z,-0.20
2023-01-17T19:51:52.896Z,-0.20
2023-01-17T19:54:20.982Z,-0.10
2023-01-17T19:56:49.045Z,-0.20
2023-01-17T19:59:20.197Z,-0.20
2023-01-17T20:01:49.013Z,-0.10
2023-01-17T20:04:17.924Z,-0.10
2023-01-17T20:06:47.980Z,-0.20
2023-01-17T20:09:15.888Z,-0.10
2023-01-17T20:11:45.655Z,-0.20
2023-01-17T20:14:16.473Z,-0.20
2023-01-17T20:16:45.084Z,-0.30
2023-01-17T20:19:13.156Z,-0.20
2023-01-17T20:21:41.131Z,-0.30
2023-01-17T20:24:13.514Z,-0.30
2023-01-17T20:26:44.146Z,-0.30
2023-01-17T20:29:14.758Z,-0.30
2023-01-17T20:31:44.580Z,-0.30
2023-01-17T20:34:18.845Z,-0.40
2023-01-17T20:36:47.597Z,-0.40
2023-01-17T20:39:19.655Z,-0.50
2023-01-17T20:41:49.824Z,-0.50
2023-01-17T20:44:19.571Z,-0.50
2023-01-17T20:46:48.140Z,-0.60
2023-01-17T20:49:18.842Z,-0.60
2023-01-17T20:51:47.592Z,-0.70
2023-01-17T20:54:18.965Z,-0.60
2023-01-17T20:56:49.983Z,-0.70
2023-01-17T20:59:20.123Z,-0.60
2023-01-17T21:01:51.751Z,-0.50
2023-01-17T21:04:25.689Z,-0.40
2023-01-17T21:06:54.777Z,-0.50
2023-01-17T21:09:24.586Z,-0.50
2023-01-17T21:11:54.438Z,-0.50
2023-01-17T21:14:22.774Z,-0.60
2023-01-17T21:16:51.345Z,-0.80
2023-01-17T21:19:20.382Z,-0.80
2023-01-17T21:21:50.121Z,-0.80
2023-01-17T21:24:19.091Z,-0.90
2023-01-17T21:26:52.658Z,-0.90
2023-01-17T21:29:20.715Z,-0.90
2023-01-17T21:31:48.699Z,-0.90
2023-01-17T21:34:16.764Z,-1.00
2023-01-17T21:36:44.711Z,-1.00
2023-01-17T21:39:15.648Z,-1.00
2023-01-17T21:41:48.895Z,-0.90
2023-01-17T21:44:20.312Z,-0.90
2023-01-17T21:46:50.980Z,-0.90
2023-01-17T21:49:19.323Z,-0.90
2023-01-17T21:52:04.797Z,-0.90
2023-01-17T21:54:50.673Z,-0.90
2023-01-17T21:57:38.557Z,-0.90
2023-01-17T22:00:14.400Z,-0.90
2023-01-17T22:02:42.665Z,-0.90
2023-01-17T22:05:11.313Z,-0.90
2023-01-17T22:07:40.160Z,-0.90
2023-01-17T22:10:08.622Z,-0.90
2023-01-17T22:12:36.554Z,-0.90
2023-01-17T22:15:05.172Z,-0.90
2023-01-17T22:17:34.560Z,-1.00
2023-01-17T22:20:02.644Z,-1.00
2023-01-17T22:22:34.194Z,-1.00
2023-01-17T22:25:02.309Z,-1.00
2023-01-17T22:27:30.551Z,-1.00
2023-01-17T22:30:00.670Z,-1.00
2023-01-17T22:32:29.877Z,-0.90
2023-01-17T22:35:01.810Z,-1.00
2023-01-17T22:37:30.110Z,-1.00
2023-01-17T22:39:58.188Z,-0.90
2023-01-17T22:42:26.262Z,-0.90
2023-01-17T22:44:54.337Z,-0.90
2023-01-17T22:47:22.510Z,-0.90
2023-01-17T22:49:50.480Z,-0.90
2023-01-17T22:52:19.871Z,-0.80
2023-01-17T22:54:47.855Z,-0.80
2023-01-17T22:57:15.994Z,-0.80
2023-01-17T22:59:44.009Z,-0.80
2023-01-17T23:02:12.285Z,-0.80
2023-01-17T23:04:40.748Z,-0.80
2023-01-17T23:07:08.809Z,-0.80
2023-01-17T23:09:40.273Z,-0.80
2023-01-17T23:12:08.658Z,-0.80
2023-01-17T23:14:51.350Z,-0.80
2023-01-17T23:17:38.077Z,-0.90
2023-01-17T23:20:09.904Z,-0.80
2023-01-17T23:22:38.429Z,-0.80
2023-01-17T23:25:11.051Z,-0.80
2023-01-17T23:27:57.692Z,-0.80
2023-01-17T23:30:29.163Z,-0.70
2023-01-17T23:32:59.036Z,-0.70
2023-01-17T23:35:29.195Z,-0.70
2023-01-17T23:38:16.025Z,-0.70
2023-01-17T23:41:06.504Z,-0.70
2023-01-17T23:43:34.581Z,-0.60
2023-01-17T23:46:03.381Z,-0.60
2023-01-17T23:48:31.814Z,-0.50
2023-01-17T23:51:02.276Z,-0.60
2023-01-17T23:53:30.437Z,-0.60
2023-01-17T23:56:05.394Z,-0.60
2023-01-17T23:58:34.275Z,-0.60
